LEPA/PMI METAR and TAF weather

Enter ICAO airport designator
Station Type Date Time Source
LEPA METAR 2019/12/07 00:00 UTC NOAA

LEPA 070000Z 00000KT 9999 FEW020 10/10 Q1023 NOSIG


Station Type Date Time Source
LEPA Decoded METAR 2019/12/07 00:00 UTC NOAA

Palma De Mallorca / Son San Juan, Spain (LEPA) 39-33N 002-44E 8M
Dec 06, 2019 - 07:00 PM EST / 2019.12.07 0000 UTC
Wind: Calm:0
Visibility: greater than 7 mile(s):0
Sky conditions: mostly clear
Temperature: 50 F (10 C)
Dew Point: 50 F (10 C)
Relative Humidity: 100%
Pressure (altimeter): 30.21 in. Hg (1023 hPa)
ob: LEPA 070000Z 00000KT 9999 FEW020 10/10 Q1023 NOSIG
cycle: 0

Station Type Date Time Source
LEPA TAF 2019/12/06 18:27 UTC NOAA

TAF LEPA 061700Z 0618/0718 06004KT 9999 FEW015 TX17/0713Z TN07/0706Z
TEMPO 0623/0709 4500 BR PROB40
TEMPO 0701/0709 0800 BCFG VV002

Example: see airport list